Time;durP1;ratioP1;P1;durP2;ratioP2;P2;SDS_P1;SDS_P2;PMS_P1;PMS_P2;Temp;Humidity;BMP_temperature;BMP_pressure;BME280_temperature;BME280_humidity;BME280_pressure;Samples;Min_cycle;Max_cycle;Signal;HPM_P1;HPM_P2
2023/12/16 00:00:44;;;;;;;41.50;15.80;;;;;;;7.17;94.70;101825.77;682856;1260;140033;-86
2023/12/16 00:16:25;;;;;;;54.20;18.50;;;;;;;7.22;94.32;101821.83;682616;1262;139463;-86
2023/12/16 00:32:03;;;;;;;112.80;41.70;;;;;;;7.21;94.62;101820.50;682431;1262;140301;-86
2023/12/16 00:47:40;;;;;;;48.10;19.80;;;;;;;7.15;95.16;101840.13;682395;1262;139763;-87
2023/12/16 01:03:17;;;;;;;45.80;17.20;;;;;;;7.13;95.84;101841.62;682248;1262;139959;-87
2023/12/16 01:18:55;;;;;;;47.20;16.10;;;;;;;7.10;96.28;101851.45;682503;1264;139839;-86
2023/12/16 01:34:32;;;;;;;53.30;20.60;;;;;;;7.10;96.49;101857.74;682576;1261;139842;-87
2023/12/16 01:50:10;;;;;;;43.90;17.70;;;;;;;7.09;97.34;101838.31;682589;1262;139126;-86
2023/12/16 02:05:48;;;;;;;50.80;19.40;;;;;;;7.22;97.26;101855.44;682876;1262;139923;-86
2023/12/16 02:21:25;;;;;;;44.60;14.60;;;;;;;7.26;97.28;101847.75;675036;1261;10141270;-86
2023/12/16 02:37:05;;;;;;;40.70;15.10;;;;;;;7.34;97.59;101850.33;682454;1260;139371;-86
2023/12/16 02:52:42;;;;;;;39.30;14.00;;;;;;;7.39;98.23;101853.39;682499;1257;140306;-87
2023/12/16 03:08:19;;;;;;;40.90;15.70;;;;;;;7.49;98.24;101867.50;682803;1262;139630;-86
2023/12/16 03:23:56;;;;;;;39.60;15.30;;;;;;;7.59;98.42;101867.70;682862;1260;139480;-86
2023/12/16 03:39:33;;;;;;;37.00;13.90;;;;;;;7.73;98.09;101861.61;682559;1261;139617;-86
2023/12/16 03:55:10;;;;;;;38.10;14.30;;;;;;;7.76;98.22;101867.88;682582;1263;139219;-86
2023/12/16 04:10:47;;;;;;;44.90;14.90;;;;;;;7.78;98.44;101891.31;682610;1262;139285;-86
2023/12/16 04:26:24;;;;;;;146.80;46.80;;;;;;;7.89;98.56;101895.65;682719;1259;139205;-85
2023/12/16 04:42:01;;;;;;;38.40;15.00;;;;;;;7.98;98.19;101890.65;682673;1261;139586;-86
2023/12/16 04:57:38;;;;;;;34.50;14.40;;;;;;;8.03;98.02;101888.81;682432;1263;139372;-87
2023/12/16 05:13:16;;;;;;;32.60;12.10;;;;;;;8.10;97.92;101885.17;682637;1266;139238;-87
2023/12/16 05:28:52;;;;;;;34.70;12.50;;;;;;;8.20;97.15;101876.96;682614;1262;139353;-87
2023/12/16 05:44:29;;;;;;;26.50;10.00;;;;;;;8.31;96.85;101883.88;682532;1258;139578;-85
2023/12/16 06:00:08;;;;;;;22.50;8.40;;;;;;;8.38;96.36;101902.02;682675;1261;140266;-86
2023/12/16 06:15:45;;;;;;;12.80;5.90;;;;;;;8.49;95.25;101910.34;682476;1262;139645;-86
2023/12/16 06:31:41;;;;;;;19.10;6.60;;;;;;;8.73;93.87;101917.59;682821;1263;139560;-84
2023/12/16 06:47:18;;;;;;;52.10;31.50;;;;;;;8.73;93.63;101926.86;682772;1258;140001;-85
2023/12/16 07:02:55;;;;;;;42.90;18.00;;;;;;;8.82;92.69;101929.52;682674;1262;139471;-86
2023/12/16 07:18:33;;;;;;;43.90;19.50;;;;;;;8.83;91.72;101928.59;682784;1257;138671;-86
2023/12/16 07:34:10;;;;;;;79.30;24.80;;;;;;;8.76;92.21;101931.88;682103;1260;140386;-86
2023/12/16 07:49:47;;;;;;;41.20;16.40;;;;;;;8.74;91.96;101943.20;682159;1261;139556;-85
2023/12/16 08:05:24;;;;;;;33.80;14.10;;;;;;;8.72;91.97;101954.14;682206;1263;139255;-85
2023/12/16 08:21:01;;;;;;;60.80;22.90;;;;;;;8.86;92.33;101950.04;682087;1258;140830;-86
2023/12/16 08:36:38;;;;;;;86.60;37.30;;;;;;;8.95;92.30;101966.15;682897;1259;138733;-85
2023/12/16 08:52:18;;;;;;;151.10;55.50;;;;;;;9.07;91.46;101979.95;682820;1259;138887;-86
2023/12/16 09:07:55;;;;;;;87.50;34.70;;;;;;;9.11;92.00;101954.44;682729;1261;141547;-84
2023/12/16 09:23:32;;;;;;;56.10;24.30;;;;;;;9.32;91.35;101959.91;682169;1260;138714;-84
2023/12/16 09:39:10;;;;;;;46.50;19.80;;;;;;;9.40;91.18;101961.02;682346;1259;140072;-85
2023/12/16 09:54:47;;;;;;;42.50;18.80;;;;;;;9.42;90.89;101956.91;682618;1261;139086;-84
2023/12/16 10:10:24;;;;;;;73.90;28.20;;;;;;;9.36;91.38;101954.29;682438;1259;139288;-85
2023/12/16 10:26:01;;;;;;;57.60;27.00;;;;;;;9.36;92.55;101945.73;682588;1259;139391;-85
2023/12/16 10:41:38;;;;;;;68.80;29.00;;;;;;;9.20;94.27;101937.36;682236;1264;138678;-85
2023/12/16 10:57:37;;;;;;;42.90;19.50;;;;;;;9.24;95.32;101917.78;682848;1262;138802;-85
2023/12/16 11:13:14;;;;;;;56.00;26.90;;;;;;;9.43;95.85;101903.26;682891;1259;139447;-84
2023/12/16 11:28:58;;;;;;;42.10;19.40;;;;;;;9.55;95.87;101898.55;682494;1262;139141;-84
2023/12/16 11:45:00;;;;;;;48.10;21.90;;;;;;;9.58;96.67;101887.02;682805;1262;138851;-87
2023/12/16 12:00:37;;;;;;;43.20;21.00;;;;;;;9.81;95.32;101865.02;682835;1262;139353;-86
2023/12/16 12:16:15;;;;;;;222.00;88.00;;;;;;;9.81;95.12;101860.33;682624;1260;139494;-86
2023/12/16 12:31:53;;;;;;;462.00;227.40;;;;;;;9.73;96.12;101864.50;682791;1259;139206;-85
2023/12/16 12:47:36;;;;;;;60.40;29.60;;;;;;;9.76;96.63;101844.02;682713;1260;140013;-85
2023/12/16 13:03:15;;;;;;;41.40;20.30;;;;;;;9.82;96.71;101826.41;682875;1262;139241;-87
2023/12/16 13:18:52;;;;;;;74.70;30.30;;;;;;;9.87;96.40;101804.54;682605;1258;138596;-86
2023/12/16 13:34:29;;;;;;;92.20;39.70;;;;;;;10.02;95.68;101783.20;682470;1263;140145;-84
2023/12/16 13:50:06;;;;;;;80.50;30.00;;;;;;;10.17;94.14;101768.11;682827;1260;141096;-86
2023/12/16 14:05:43;;;;;;;32.70;13.80;;;;;;;10.04;93.42;101747.08;682874;1262;140017;-85
2023/12/16 14:21:25;;;;;;;31.10;14.80;;;;;;;10.11;92.37;101746.48;678633;1262;10163543;-84
2023/12/16 14:37:02;;;;;;;80.40;33.20;;;;;;;10.01;90.36;101741.35;682540;1262;141066;-84
2023/12/16 14:52:39;;;;;;;48.40;21.80;;;;;;;9.78;88.89;101736.46;682506;1262;139171;-84
2023/12/16 15:08:18;;;;;;;45.50;24.90;;;;;;;9.85;87.22;101737.96;682377;1259;138987;-84
2023/12/16 15:24:02;;;;;;;31.00;15.40;;;;;;;9.80;87.00;101724.63;682472;1260;138682;-86
2023/12/16 15:39:41;;;;;;;95.50;53.60;;;;;;;9.84;85.91;101729.60;682598;1259;138736;-85
2023/12/16 15:55:17;;;;;;;45.00;19.60;;;;;;;9.91;85.03;101720.81;682664;1262;139647;-84
2023/12/16 16:10:55;;;;;;;64.80;30.00;;;;;;;9.82;85.33;101710.55;682229;1259;138695;-84
2023/12/16 16:26:33;;;;;;;28.00;13.10;;;;;;;9.92;84.93;101703.62;682356;1265;139505;-84
2023/12/16 16:42:10;;;;;;;57.30;21.80;;;;;;;9.80;87.10;101690.57;682593;1262;138939;-85
2023/12/16 16:57:47;;;;;;;50.60;19.30;;;;;;;9.68;88.36;101675.60;682270;1260;141352;-84
2023/12/16 17:13:24;;;;;;;50.60;21.90;;;;;;;9.58;90.73;101682.27;682418;1262;139563;-83
2023/12/16 17:29:02;;;;;;;92.80;39.60;;;;;;;9.63;91.79;101670.14;682333;1262;138741;-84
2023/12/16 17:44:38;;;;;;;30.00;15.00;;;;;;;9.33;94.54;101635.61;682126;1262;139192;-85
2023/12/16 18:00:16;;;;;;;53.10;21.80;;;;;;;9.36;95.72;101641.23;682304;1264;139339;-85
2023/12/16 18:15:54;;;;;;;44.40;20.60;;;;;;;9.51;95.88;101633.33;682364;1262;139476;-83
2023/12/16 18:31:31;;;;;;;82.70;28.40;;;;;;;9.58;95.53;101633.09;682265;1264;141285;-85
2023/12/16 18:47:08;;;;;;;48.10;21.30;;;;;;;9.60;96.62;101631.02;682229;1264;139722;-83
2023/12/16 19:02:45;;;;;;;34.20;17.40;;;;;;;9.63;96.81;101611.29;682142;1264;139546;-84
2023/12/16 19:18:22;;;;;;;33.20;15.20;;;;;;;9.60;96.75;101595.89;682290;1264;138824;-84
2023/12/16 19:33:59;;;;;;;36.30;16.40;;;;;;;9.57;97.11;101580.36;682634;1260;139067;-85
2023/12/16 19:49:36;;;;;;;30.90;15.50;;;;;;;9.44;97.63;101582.41;682564;1263;138754;-86
2023/12/16 20:05:14;;;;;;;29.60;14.00;;;;;;;9.58;98.41;101573.33;682398;1263;138686;-83
2023/12/16 20:20:51;;;;;;;26.80;14.60;;;;;;;9.62;98.46;101546.67;682666;1263;139796;-86
2023/12/16 20:36:31;;;;;;;31.40;17.00;;;;;;;9.54;98.82;101529.59;682691;1263;138819;-86
2023/12/16 20:52:08;;;;;;;25.20;14.00;;;;;;;9.65;98.62;101509.98;682190;1263;138765;-85
2023/12/16 21:07:46;;;;;;;28.00;12.90;;;;;;;9.51;99.21;101478.42;682340;1262;138868;-83
2023/12/16 21:23:23;;;;;;;26.10;12.10;;;;;;;9.56;99.18;101452.10;682302;1263;138861;-86
2023/12/16 21:39:01;;;;;;;22.80;11.00;;;;;;;9.19;100.00;101448.68;682439;1263;139044;-85
2023/12/16 21:54:38;;;;;;;18.60;8.30;;;;;;;9.37;100.00;101450.11;682581;1271;139500;-85
2023/12/16 22:10:15;;;;;;;16.00;9.90;;;;;;;9.95;98.01;101456.52;682329;1263;140364;-87
2023/12/16 22:25:52;;;;;;;17.30;9.80;;;;;;;9.97;96.65;101423.12;682503;1264;138716;-86
2023/12/16 22:41:29;;;;;;;15.10;10.10;;;;;;;9.39;99.85;101406.15;682693;1263;139670;-84
2023/12/16 22:57:06;;;;;;;21.00;10.70;;;;;;;9.64;99.95;101393.58;682534;1263;139538;-84
2023/12/16 23:12:43;;;;;;;28.20;11.90;;;;;;;9.81;98.88;101405.55;682494;1258;139641;-84
2023/12/16 23:28:21;;;;;;;19.10;11.90;;;;;;;10.18;96.99;101433.67;682144;1263;138791;-85
2023/12/16 23:43:57;;;;;;;21.80;11.10;;;;;;;10.14;97.27;101454.34;682637;1261;138792;-83
2023/12/16 23:59:35;;;;;;;19.50;11.30;;;;;;;10.01;98.16;101445.93;682763;1257;139574;-84
